Time;durP1;ratioP1;P1;durP2;ratioP2;P2;SDS_P1;SDS_P2;PMS_P1;PMS_P2;Temp;Humidity;BMP_temperature;BMP_pressure;BME280_temperature;BME280_humidity;BME280_pressure;Samples;Min_cycle;Max_cycle;Signal;HPM_P1;HPM_P2
2022/04/21 00:01:29;;;;;;;3.90;0.60;;;21.30;99.90;;;;;;5072159;28;20225;-68
2022/04/21 00:03:56;;;;;;;3.70;0.50;;;21.90;99.90;;;;;;5072221;28;20633;-65
2022/04/21 00:06:23;;;;;;;3.73;0.60;;;22.50;99.90;;;;;;5072390;28;20709;-65
2022/04/21 00:08:51;;;;;;;1.40;0.43;;;22.80;99.90;;;;;;5072254;28;20186;-65
2022/04/21 00:11:18;;;;;;;0.70;0.40;;;22.60;99.90;;;;;;5071620;28;20187;-66
2022/04/21 00:13:45;;;;;;;2.33;0.50;;;22.10;99.90;;;;;;5072278;28;20233;-66
2022/04/21 00:16:13;;;;;;;5.13;0.40;;;21.70;99.90;;;;;;5071728;28;20224;-65
2022/04/21 00:18:40;;;;;;;3.17;0.60;;;21.00;99.90;;;;;;5072154;28;20204;-66
2022/04/21 00:21:08;;;;;;;2.03;0.70;;;21.40;99.90;;;;;;5071864;28;20168;-66
2022/04/21 00:23:35;;;;;;;1.17;0.50;;;22.00;99.90;;;;;;5072327;28;20629;-67
2022/04/21 00:26:04;;;;;;;4.17;0.63;;;22.10;99.90;;;;;;5070746;28;20172;-67
2022/04/21 00:28:32;;;;;;;3.07;0.57;;;22.70;99.90;;;;;;5071587;28;20184;-68
2022/04/21 00:30:59;;;;;;;1.70;0.50;;;22.80;99.90;;;;;;5071833;28;20577;-67
2022/04/21 00:33:26;;;;;;;1.27;0.40;;;23.20;99.90;;;;;;5072153;28;20172;-68
2022/04/21 00:35:54;;;;;;;1.87;0.60;;;23.10;99.90;;;;;;5071978;28;20562;-68
2022/04/21 00:38:21;;;;;;;0.83;0.40;;;23.10;99.90;;;;;;5071742;28;20211;-69
2022/04/21 00:40:49;;;;;;;2.97;0.63;;;23.50;99.90;;;;;;5071955;28;20191;-68
2022/04/21 00:43:17;;;;;;;0.70;0.40;;;23.50;99.90;;;;;;5071425;28;20563;-68
2022/04/21 00:45:44;;;;;;;1.07;0.40;;;23.50;99.90;;;;;;5071861;28;20568;-68
2022/04/21 00:48:13;;;;;;;5.30;0.60;;;24.30;99.90;;;;;;5071721;28;20179;-68
2022/04/21 00:50:41;;;;;;;0.70;0.40;;;24.50;99.90;;;;;;5071833;28;20198;-68
2022/04/21 00:53:09;;;;;;;1.10;0.50;;;24.00;99.90;;;;;;5071785;28;20262;-67
2022/04/21 00:55:39;;;;;;;0.87;0.43;;;23.80;99.90;;;;;;5071799;28;20175;-68
2022/04/21 00:58:08;;;;;;;0.90;0.50;;;24.80;99.90;;;;;;5070981;28;20214;-68
2022/04/21 01:00:35;;;;;;;0.90;0.40;;;25.20;99.90;;;;;;5071570;28;20605;-68
2022/04/21 01:03:05;;;;;;;4.27;0.60;;;25.30;99.90;;;;;;5070089;28;20561;-66
2022/04/21 01:05:33;;;;;;;1.90;0.80;;;25.70;99.90;;;;;;5071378;28;20183;-68
2022/04/21 01:08:04;;;;;;;1.43;0.50;;;25.10;99.90;;;;;;5071434;28;20172;-67
2022/04/21 01:10:34;;;;;;;8.20;1.30;;;25.50;99.90;;;;;;5071230;28;20188;-67
2022/04/21 01:13:05;;;;;;;0.93;0.43;;;25.60;99.90;;;;;;5071529;28;20697;-67
2022/04/21 01:15:32;;;;;;;3.83;0.60;;;25.40;99.90;;;;;;5071246;28;20461;-66
2022/04/21 01:17:59;;;;;;;3.00;0.73;;;25.30;99.90;;;;;;5071369;28;20692;-67
2022/04/21 01:20:27;;;;;;;11.37;2.60;;;25.80;99.90;;;;;;5070368;28;20179;-66
2022/04/21 01:22:55;;;;;;;1.47;0.70;;;25.80;99.90;;;;;;5071504;28;20629;-67
2022/04/21 01:25:23;;;;;;;1.10;0.50;;;25.80;99.90;;;;;;5071199;28;20198;-68
2022/04/21 01:28:01;;;;;;;13.93;2.67;;;25.30;99.90;;;;;;5071267;28;20634;-67
2022/04/21 01:30:28;;;;;;;3.87;1.00;;;24.70;99.90;;;;;;5071425;28;20176;-67
2022/04/21 01:32:57;;;;;;;3.47;0.97;;;24.50;99.90;;;;;;5071439;28;20187;-67
2022/04/21 01:35:25;;;;;;;3.00;0.70;;;24.10;99.90;;;;;;5070832;28;20729;-68
2022/04/21 01:43:24;;;;;;;6.03;1.17;;;24.80;99.90;;;;;;5071320;28;20183;-68
2022/04/21 01:45:52;;;;;;;10.50;1.30;;;23.90;99.90;;;;;;5071144;28;20215;-68
2022/04/21 01:48:19;;;;;;;3.03;0.70;;;23.60;99.90;;;;;;5070914;28;20187;-67
2022/04/21 01:50:47;;;;;;;6.40;1.20;;;23.50;99.90;;;;;;5070906;28;20191;-68
2022/04/21 01:53:15;;;;;;;3.17;1.30;;;22.70;99.90;;;;;;5070632;28;20206;-67
2022/04/21 01:55:43;;;;;;;3.80;1.10;;;22.60;99.90;;;;;;5071259;28;20176;-68
2022/04/21 01:58:10;;;;;;;4.83;1.10;;;23.60;99.90;;;;;;5071263;28;20685;-69
2022/04/21 02:00:39;;;;;;;6.77;1.00;;;24.80;99.90;;;;;;5071271;28;20180;-68
2022/04/21 02:03:07;;;;;;;5.30;1.00;;;25.60;99.90;;;;;;5071188;28;20183;-68
2022/04/21 02:05:34;;;;;;;4.13;1.07;;;26.00;99.90;;;;;;5071165;28;20191;-68
2022/04/21 02:08:03;;;;;;;4.10;1.00;;;26.40;99.90;;;;;;5070241;28;20184;-67
2022/04/21 02:10:31;;;;;;;3.10;1.00;;;26.00;99.90;;;;;;5068537;28;20267;-67
2022/04/21 02:12:59;;;;;;;2.97;1.13;;;26.00;99.90;;;;;;5073956;28;20601;-67
2022/04/21 02:15:27;;;;;;;2.80;1.03;;;26.80;99.90;;;;;;5073175;28;20176;-66
2022/04/21 02:17:55;;;;;;;7.97;1.57;;;26.60;99.90;;;;;;5071202;28;20190;-64
2022/04/21 02:20:23;;;;;;;6.83;1.10;;;25.90;99.90;;;;;;5072650;28;20714;-65
2022/04/21 02:22:51;;;;;;;8.50;1.30;;;25.00;99.90;;;;;;5073777;28;20187;-66
2022/04/21 02:25:18;;;;;;;4.20;1.10;;;25.40;99.90;;;;;;5072781;28;20208;-66
2022/04/21 02:27:47;;;;;;;5.30;1.40;;;24.60;99.90;;;;;;5070863;28;20611;-66
2022/04/21 02:30:17;;;;;;;4.20;1.23;;;24.40;99.90;;;;;;5073604;28;20607;-66
2022/04/21 02:32:45;;;;;;;2.80;0.97;;;25.60;99.90;;;;;;5073626;28;20175;-66
2022/04/21 02:35:15;;;;;;;6.70;1.43;;;26.00;99.90;;;;;;5073084;28;20187;-66
2022/04/21 02:37:46;;;;;;;5.47;1.40;;;25.00;99.90;;;;;;5073202;28;20182;-66
2022/04/21 02:40:15;;;;;;;10.67;1.27;;;24.70;99.90;;;;;;5070947;28;20258;-67
2022/04/21 02:42:43;;;;;;;3.87;1.10;;;25.20;99.90;;;;;;5073048;28;20275;-66
2022/04/21 02:45:12;;;;;;;4.30;1.10;;;25.30;99.90;;;;;;5073100;28;20275;-67
2022/04/21 02:47:46;;;;;;;4.73;1.53;;;25.60;99.90;;;;;;5072547;28;20539;-66
2022/04/21 02:50:16;;;;;;;7.73;1.53;;;24.60;99.90;;;;;;5073488;28;20195;-66
2022/04/21 02:52:44;;;;;;;10.03;2.53;;;23.70;99.90;;;;;;5072835;28;20184;-67
2022/04/21 02:58:00;;;;;;;22.30;6.63;;;22.60;99.90;;;;;;5073616;28;20687;-68
2022/04/21 03:00:28;;;;;;;22.43;6.30;;;22.50;99.90;;;;;;5069014;28;20175;-67
2022/04/21 03:02:59;;;;;;;13.37;3.10;;;22.40;99.90;;;;;;5073540;28;20244;-67
2022/04/21 03:05:26;;;;;;;11.30;3.60;;;22.20;99.90;;;;;;5073304;28;20266;-66
2022/04/21 03:07:54;;;;;;;7.03;2.13;;;22.50;99.90;;;;;;5073136;28;20224;-67
2022/04/21 03:10:22;;;;;;;16.10;4.50;;;22.50;99.90;;;;;;5072939;28;20186;-67
2022/04/21 03:12:50;;;;;;;5.60;1.50;;;21.80;99.90;;;;;;5073320;28;20190;-67
2022/04/21 03:15:17;;;;;;;4.13;1.40;;;21.20;99.90;;;;;;5073259;28;20233;-65
2022/04/21 03:17:45;;;;;;;7.53;1.80;;;21.00;99.90;;;;;;5073033;28;20309;-66
2022/04/21 03:24:18;;;;;;;7.37;1.50;;;20.90;99.90;;;;;;5072070;28;20242;-66
2022/04/21 03:25:46;;;;;;;6.67;1.60;;;20.30;99.90;;;;;;5072347;28;20845;-66
2022/04/21 03:28:14;;;;;;;7.83;1.90;;;20.00;99.90;;;;;;5053102;28;20265;-67
2022/04/21 03:30:42;;;;;;;10.17;2.27;;;19.80;99.90;;;;;;5056820;28;20642;-67
2022/04/21 03:33:10;;;;;;;11.10;2.10;;;19.70;99.90;;;;;;5072729;28;20193;-66
2022/04/21 03:35:37;;;;;;;8.93;2.07;;;19.80;99.90;;;;;;5072366;28;20191;-66
2022/04/21 03:38:05;;;;;;;8.80;2.10;;;19.70;99.90;;;;;;5072646;28;20577;-67
2022/04/21 03:40:33;;;;;;;8.20;2.17;;;19.70;99.90;;;;;;5072664;28;20195;-67
2022/04/21 03:43:00;;;;;;;8.03;2.20;;;19.70;99.90;;;;;;5072271;28;20600;-67
2022/04/21 03:45:29;;;;;;;10.10;1.90;;;19.70;99.90;;;;;;5071618;28;20179;-66
2022/04/21 03:48:02;;;;;;;4.43;1.70;;;19.80;99.90;;;;;;5066757;28;20600;-68
2022/04/21 03:50:31;;;;;;;6.93;1.87;;;19.90;99.90;;;;;;5072704;28;20218;-68
2022/04/21 03:52:59;;;;;;;6.87;2.20;;;20.00;99.90;;;;;;5072109;28;20250;-67
2022/04/21 03:55:26;;;;;;;5.30;1.90;;;19.90;99.90;;;;;;5072289;28;20180;-66
2022/04/21 03:57:54;;;;;;;4.90;2.00;;;19.90;99.90;;;;;;5072193;28;20186;-67
2022/04/21 04:00:22;;;;;;;4.20;1.50;;;19.80;99.90;;;;;;5072401;28;20215;-67
2022/04/21 04:02:50;;;;;;;5.53;1.50;;;19.80;99.90;;;;;;5072537;28;20537;-67
2022/04/21 04:05:17;;;;;;;5.40;1.70;;;19.70;99.90;;;;;;5072483;28;20626;-67
2022/04/21 04:13:16;;;;;;;8.10;1.40;;;19.60;99.90;;;;;;5071997;28;20374;-67
2022/04/21 04:15:48;;;;;;;9.33;1.50;;;19.60;99.90;;;;;;5072095;28;20251;-67
2022/04/21 04:18:16;;;;;;;7.37;1.50;;;19.50;99.90;;;;;;5071975;28;20216;-67
2022/04/21 04:20:46;;;;;;;9.80;2.37;;;19.50;99.90;;;;;;5071822;28;20180;-67
2022/04/21 04:23:20;;;;;;;9.90;1.83;;;19.50;99.90;;;;;;5070512;28;20204;-66
2022/04/21 04:25:48;;;;;;;8.83;1.70;;;19.50;99.90;;;;;;5071681;28;20272;-67
2022/04/21 04:28:16;;;;;;;5.50;1.80;;;19.70;99.90;;;;;;5071080;28;20187;-66
2022/04/21 04:30:43;;;;;;;8.53;1.90;;;19.80;99.90;;;;;;5072221;28;20179;-67
2022/04/21 04:33:11;;;;;;;8.17;1.93;;;20.00;99.90;;;;;;5071776;28;20585;-67
2022/04/21 04:35:39;;;;;;;9.83;1.80;;;19.80;99.90;;;;;;5071587;28;20174;-67
2022/04/21 04:38:06;;;;;;;5.67;1.57;;;19.80;99.90;;;;;;5071360;28;20273;-67
2022/04/21 04:40:34;;;;;;;8.10;1.47;;;19.80;99.90;;;;;;5072042;28;20228;-67
2022/04/21 04:43:03;;;;;;;9.63;1.50;;;19.70;99.90;;;;;;5071812;28;20203;-67
2022/04/21 04:48:16;;;;;;;9.97;1.90;;;19.70;99.90;;;;;;5071643;28;20195;-68
2022/04/21 04:50:44;;;;;;;5.33;1.63;;;19.90;99.90;;;;;;5071940;28;20560;-67
2022/04/21 04:53:13;;;;;;;6.20;1.50;;;19.90;99.90;;;;;;5071744;28;20172;-67
2022/04/21 04:55:40;;;;;;;8.30;1.80;;;19.90;99.90;;;;;;5071848;28;20184;-68
2022/04/21 04:58:08;;;;;;;6.67;1.50;;;19.80;99.90;;;;;;5071071;28;20214;-68
2022/04/21 05:00:36;;;;;;;8.40;1.80;;;19.80;99.90;;;;;;5071757;28;20632;-66
2022/04/21 05:03:04;;;;;;;6.03;1.70;;;19.70;99.90;;;;;;5070841;28;20172;-66
2022/04/21 05:05:31;;;;;;;7.50;1.60;;;19.70;99.90;;;;;;5074977;28;20189;-67
2022/04/21 05:08:01;;;;;;;5.07;1.37;;;19.70;99.90;;;;;;5071480;28;20203;-66
2022/04/21 05:10:29;;;;;;;5.97;1.50;;;19.50;99.90;;;;;;5071559;28;20178;-66
2022/04/21 05:12:57;;;;;;;12.83;2.60;;;19.40;99.90;;;;;;5070280;28;20292;-66
2022/04/21 05:15:25;;;;;;;8.53;1.60;;;19.50;99.90;;;;;;5071180;28;20182;-66
2022/04/21 05:17:55;;;;;;;6.80;1.87;;;19.40;99.90;;;;;;5071298;28;20236;-66
2022/04/21 05:20:22;;;;;;;7.03;1.90;;;19.40;99.90;;;;;;5069691;28;20225;-66
2022/04/21 05:22:52;;;;;;;7.60;1.60;;;19.50;99.90;;;;;;5076611;28;20182;-65
2022/04/21 05:25:20;;;;;;;6.87;1.47;;;19.50;99.90;;;;;;5072820;28;20184;-65
2022/04/21 05:27:47;;;;;;;5.13;1.63;;;19.50;99.90;;;;;;5071365;28;20200;-65
2022/04/21 05:31:01;;;;;;;8.50;1.80;;;19.50;99.90;;;;;;5070314;28;20179;-66
2022/04/21 05:33:03;;;;;;;5.03;1.50;;;19.60;99.90;;;;;;5070644;28;20704;-66
2022/04/21 05:35:32;;;;;;;4.47;1.40;;;19.60;99.90;;;;;;5071544;28;20176;-65
2022/04/21 05:37:59;;;;;;;5.00;1.70;;;19.70;99.90;;;;;;5070764;28;20208;-67
2022/04/21 05:40:27;;;;;;;9.63;1.60;;;19.70;99.90;;;;;;5071213;28;20589;-65
2022/04/21 05:42:58;;;;;;;6.40;1.87;;;19.60;99.90;;;;;;5070899;28;20182;-66
2022/04/21 05:45:27;;;;;;;6.70;1.60;;;19.60;99.90;;;;;;5073094;28;20195;-66
2022/04/21 05:47:55;;;;;;;5.43;1.77;;;19.70;99.90;;;;;;5072839;28;20211;-66
2022/04/21 05:50:22;;;;;;;6.20;1.47;;;19.60;99.90;;;;;;5074725;28;20638;-66
2022/04/21 05:52:55;;;;;;;6.20;2.03;;;19.60;99.90;;;;;;5074566;28;20178;-66
2022/04/21 05:55:22;;;;;;;7.13;1.80;;;19.60;99.90;;;;;;5074686;28;20269;-66
2022/04/21 05:57:49;;;;;;;4.73;1.53;;;19.70;99.90;;;;;;5074821;28;20179;-66
2022/04/21 06:00:17;;;;;;;4.80;1.67;;;19.70;99.90;;;;;;5074263;28;20196;-66
2022/04/21 06:02:44;;;;;;;3.97;1.60;;;19.80;99.90;;;;;;5071856;28;20172;-66
2022/04/21 06:05:11;;;;;;;5.77;1.60;;;19.80;99.90;;;;;;5074890;28;20179;-66
2022/04/21 06:07:39;;;;;;;5.93;1.40;;;19.90;99.90;;;;;;5074736;28;20510;-66
2022/04/21 06:10:07;;;;;;;6.23;1.50;;;19.80;99.90;;;;;;5074307;28;20653;-66
2022/04/21 06:12:36;;;;;;;5.07;1.53;;;19.80;99.90;;;;;;5074401;28;20180;-65
2022/04/21 06:15:04;;;;;;;3.13;1.50;;;19.80;99.90;;;;;;5074591;28;20175;-66
2022/04/21 06:17:33;;;;;;;5.83;1.50;;;19.80;99.90;;;;;;5074201;28;20600;-66
2022/04/21 06:20:00;;;;;;;5.60;1.70;;;19.80;99.90;;;;;;5072049;28;20221;-66
2022/04/21 06:22:27;;;;;;;6.50;1.57;;;19.80;99.90;;;;;;5074569;28;20172;-66
2022/04/21 06:24:55;;;;;;;4.13;1.20;;;19.80;99.90;;;;;;5073753;28;20194;-67
2022/04/21 06:27:22;;;;;;;6.33;1.97;;;19.70;99.90;;;;;;5073312;28;20187;-66
2022/04/21 06:29:49;;;;;;;4.27;2.17;;;19.70;99.90;;;;;;5074002;28;20189;-67
2022/04/21 06:32:16;;;;;;;5.63;1.50;;;19.70;99.90;;;;;;5074113;28;20176;-67
2022/04/21 06:34:44;;;;;;;7.20;1.97;;;19.60;99.90;;;;;;5074322;28;20275;-67
2022/04/21 06:37:11;;;;;;;4.40;1.63;;;19.60;99.90;;;;;;5074169;28;20175;-67
2022/04/21 06:39:38;;;;;;;4.83;1.60;;;19.70;99.90;;;;;;5074078;28;20685;-67
2022/04/21 06:42:06;;;;;;;8.60;1.80;;;19.70;99.90;;;;;;5074067;28;20194;-67
2022/04/21 06:50:04;;;;;;;4.50;1.37;;;19.50;99.90;;;;;;5073884;28;20188;-67
2022/04/21 06:52:32;;;;;;;5.03;1.13;;;19.50;99.90;;;;;;5074062;28;20181;-67
2022/04/21 06:54:59;;;;;;;5.30;1.27;;;19.50;99.90;;;;;;5073350;28;20646;-68
2022/04/21 06:57:27;;;;;;;5.70;1.30;;;19.50;99.90;;;;;;5072787;28;20183;-67
2022/04/21 06:59:54;;;;;;;5.37;2.27;;;19.50;99.90;;;;;;5073484;28;20249;-67
2022/04/21 07:02:32;;;;;;;9.23;1.50;;;19.50;99.90;;;;;;5073804;28;20203;-67
2022/04/21 07:05:17;;;;;;;4.30;1.60;;;19.50;99.90;;;;;;5073372;28;20179;-67
2022/04/21 07:07:45;;;;;;;4.50;1.33;;;19.50;99.90;;;;;;5073525;28;20232;-67
2022/04/21 07:10:13;;;;;;;6.77;1.77;;;19.40;99.90;;;;;;5073465;28;20209;-67
2022/04/21 07:12:41;;;;;;;4.50;1.53;;;19.30;99.90;;;;;;5073248;28;20672;-67
2022/04/21 07:15:10;;;;;;;7.73;1.70;;;19.30;99.90;;;;;;5073286;28;20187;-67
2022/04/21 07:17:39;;;;;;;4.93;1.50;;;19.40;99.90;;;;;;5073121;28;20692;-67
2022/04/21 07:20:09;;;;;;;8.20;1.93;;;19.30;99.90;;;;;;5073415;28;20218;-66
2022/04/21 07:22:37;;;;;;;3.50;1.50;;;19.30;99.90;;;;;;5071912;28;20203;-66
2022/04/21 07:25:07;;;;;;;5.20;1.50;;;19.20;99.90;;;;;;5073024;28;20661;-66
2022/04/21 07:27:34;;;;;;;5.63;1.67;;;19.30;99.90;;;;;;5073249;28;20205;-66
2022/04/21 07:30:02;;;;;;;8.97;1.80;;;19.20;99.90;;;;;;5073225;28;20188;-66
2022/04/21 07:32:29;;;;;;;10.57;1.50;;;19.20;99.90;;;;;;5073241;28;20178;-66
2022/04/21 07:34:56;;;;;;;3.93;1.40;;;19.20;99.90;;;;;;5072606;28;20178;-66
2022/04/21 07:37:24;;;;;;;6.80;1.40;;;19.10;99.90;;;;;;5069460;28;20285;-66
2022/04/21 07:39:51;;;;;;;6.67;1.30;;;19.10;99.90;;;;;;5053132;28;20995;-66
2022/04/21 07:42:18;;;;;;;8.10;1.60;;;19.10;99.90;;;;;;5059873;28;20548;-66
2022/04/21 07:44:46;;;;;;;5.77;1.10;;;19.10;99.90;;;;;;5072829;28;20194;-67
2022/04/21 07:47:13;;;;;;;5.90;1.70;;;19.10;99.90;;;;;;5072903;28;20179;-66
2022/04/21 07:49:46;;;;;;;6.20;1.20;;;19.10;99.90;;;;;;5072529;28;20278;-66
2022/04/21 07:55:20;;;;;;;4.20;1.30;;;19.10;99.90;;;;;;5061366;28;20188;-67
2022/04/21 07:57:48;;;;;;;7.50;1.90;;;19.10;99.90;;;;;;5071564;28;20195;-67
2022/04/21 08:00:19;;;;;;;2.90;0.97;;;19.00;99.90;;;;;;5072428;28;20666;-66
2022/04/21 08:02:48;;;;;;;5.23;1.53;;;19.10;99.90;;;;;;5072690;28;20232;-67
2022/04/21 08:05:18;;;;;;;7.47;1.40;;;19.00;99.90;;;;;;5072566;28;20189;-66
2022/04/21 08:07:46;;;;;;;3.80;1.10;;;19.10;99.90;;;;;;5077121;28;20653;-66
2022/04/21 08:10:15;;;;;;;9.63;1.63;;;19.00;99.90;;;;;;5072773;28;20201;-67
2022/04/21 08:12:51;;;;;;;6.63;1.60;;;19.00;99.90;;;;;;5072312;28;20178;-66
2022/04/21 08:15:32;;;;;;;4.37;1.57;;;19.00;99.90;;;;;;5072600;28;20264;-66
2022/04/21 08:18:02;;;;;;;4.73;1.50;;;19.00;99.90;;;;;;5071847;28;20199;-67
2022/04/21 08:20:31;;;;;;;5.87;1.30;;;19.00;99.90;;;;;;5071314;28;20224;-66
2022/04/21 08:22:59;;;;;;;5.80;1.80;;;19.00;99.90;;;;;;5071926;28;20184;-66
2022/04/21 08:33:42;;;;;;;4.10;1.10;;;18.90;99.90;;;;;;5070341;28;20233;-68
2022/04/21 08:36:10;;;;;;;3.83;1.30;;;18.90;99.90;;;;;;5070233;28;20192;-66
2022/04/21 08:38:38;;;;;;;2.10;1.10;;;19.00;99.90;;;;;;5058654;28;20243;-66
2022/04/21 08:41:07;;;;;;;4.20;1.20;;;18.90;99.90;;;;;;5072237;28;20186;-67
2022/04/21 08:43:35;;;;;;;4.87;1.20;;;18.90;99.90;;;;;;5072250;28;20607;-68
2022/04/21 08:46:04;;;;;;;4.47;1.30;;;18.90;99.90;;;;;;5071564;28;20180;-66
2022/04/21 08:48:35;;;;;;;5.73;1.30;;;18.90;99.90;;;;;;5070474;28;20275;-67
2022/04/21 08:51:02;;;;;;;3.33;1.43;;;18.90;99.90;;;;;;5071713;28;20206;-67
2022/04/21 08:53:30;;;;;;;10.07;1.70;;;18.80;99.90;;;;;;5071864;28;20258;-66
2022/04/21 08:56:00;;;;;;;4.73;1.63;;;18.90;99.90;;;;;;5071983;28;20523;-65
2022/04/21 08:58:27;;;;;;;8.27;1.23;;;18.90;99.90;;;;;;5062436;28;20689;-66
2022/04/21 09:00:57;;;;;;;3.13;1.30;;;18.80;99.90;;;;;;5072111;28;20629;-66
2022/04/21 09:03:24;;;;;;;5.33;1.80;;;18.80;99.90;;;;;;5071085;28;20797;-65
2022/04/21 09:05:52;;;;;;;4.13;2.00;;;18.80;99.90;;;;;;5070967;28;20557;-66
2022/04/21 09:08:31;;;;;;;4.60;1.90;;;18.80;99.90;;;;;;5071940;28;20180;-67
2022/04/21 09:11:18;;;;;;;7.37;1.70;;;18.70;99.90;;;;;;5071551;28;20186;-67
2022/04/21 09:13:45;;;;;;;8.37;1.70;;;18.80;99.90;;;;;;5069898;28;20551;-67
2022/04/21 09:16:20;;;;;;;4.77;1.53;;;18.70;99.90;;;;;;5077168;28;20223;-67
2022/04/21 09:18:47;;;;;;;8.50;1.93;;;18.70;99.90;;;;;;5073967;28;20197;-67
2022/04/21 09:21:16;;;;;;;4.13;1.37;;;18.70;99.90;;;;;;5077125;28;20605;-68
2022/04/21 09:23:48;;;;;;;8.80;1.50;;;18.60;99.90;;;;;;5056165;28;20209;-67
2022/04/21 09:26:20;;;;;;;6.53;1.60;;;18.60;99.90;;;;;;5062639;28;20198;-66
2022/04/21 09:28:57;;;;;;;6.97;1.70;;;18.60;99.90;;;;;;5075688;28;20176;-67
2022/04/21 09:31:29;;;;;;;9.37;1.87;;;18.60;99.90;;;;;;5074052;28;20590;-66
2022/04/21 09:33:58;;;;;;;4.53;1.20;;;18.60;99.90;;;;;;5055627;28;20527;-67
2022/04/21 09:36:27;;;;;;;4.43;1.43;;;18.60;99.90;;;;;;5055895;28;20204;-68
2022/04/21 09:38:59;;;;;;;7.70;1.40;;;18.60;99.90;;;;;;5056368;28;20244;-68
2022/04/21 09:41:30;;;;;;;10.60;1.60;;;18.60;99.90;;;;;;5057430;28;20712;-67
2022/04/21 09:46:57;;;;;;;6.83;1.83;;;18.60;99.90;;;;;;5076483;28;20234;-68
2022/04/21 09:49:43;;;;;;;7.13;1.87;;;18.50;99.90;;;;;;5074174;28;20671;-66
2022/04/21 09:52:12;;;;;;;6.27;2.07;;;18.50;99.90;;;;;;5073822;28;20168;-67
2022/04/21 09:54:45;;;;;;;4.27;1.70;;;18.50;99.90;;;;;;5076213;28;20175;-66
2022/04/21 09:57:13;;;;;;;5.10;1.70;;;18.50;99.90;;;;;;5073850;28;20248;-66
2022/04/21 09:59:42;;;;;;;6.63;1.70;;;18.50;99.90;;;;;;5076212;28;20212;-67
2022/04/21 10:02:11;;;;;;;6.63;1.70;;;18.50;99.90;;;;;;5076246;28;20226;-67
2022/04/21 10:04:42;;;;;;;8.07;1.80;;;18.50;99.90;;;;;;5076185;28;20191;-67
2022/04/21 10:07:10;;;;;;;5.70;1.87;;;18.50;99.90;;;;;;5075955;28;20674;-67
2022/04/21 10:09:39;;;;;;;8.50;2.57;;;18.50;99.90;;;;;;5091481;28;20180;-68
2022/04/21 10:12:07;;;;;;;17.03;9.57;;;18.40;99.90;;;;;;5090544;28;20168;-71
2022/04/21 10:14:35;;;;;;;6.97;2.13;;;18.50;99.90;;;;;;5076073;28;20179;-71
2022/04/21 10:17:02;;;;;;;6.40;1.73;;;18.50;99.90;;;;;;5075963;28;20230;-69
2022/04/21 10:19:30;;;;;;;10.23;2.00;;;18.60;99.90;;;;;;5076057;28;20215;-67
2022/04/21 10:22:04;;;;;;;12.90;1.63;;;18.50;99.90;;;;;;5075888;28;20259;-68
2022/04/21 10:24:34;;;;;;;8.80;1.63;;;18.50;99.90;;;;;;5075942;28;20699;-67
2022/04/21 10:27:02;;;;;;;8.37;1.57;;;18.50;99.90;;;;;;5075750;28;20264;-68
2022/04/21 10:29:29;;;;;;;8.13;1.73;;;18.40;99.90;;;;;;5075831;28;20203;-68
2022/04/21 10:32:03;;;;;;;6.03;1.60;;;18.40;99.90;;;;;;5074211;28;20177;-67
2022/04/21 10:34:43;;;;;;;7.63;1.43;;;18.40;99.90;;;;;;5075722;28;20184;-67
2022/04/21 10:37:10;;;;;;;9.20;2.40;;;18.40;99.90;;;;;;5074976;28;20187;-67
2022/04/21 10:39:39;;;;;;;5.77;1.63;;;18.30;99.90;;;;;;5075804;28;20265;-66
2022/04/21 10:42:14;;;;;;;10.13;1.77;;;18.30;99.90;;;;;;5075734;28;20623;-67
2022/04/21 10:44:50;;;;;;;7.50;1.80;;;18.30;99.90;;;;;;5075146;28;20704;-67
2022/04/21 10:47:38;;;;;;;7.40;2.17;;;18.30;99.90;;;;;;5075035;28;20703;-66
2022/04/21 10:50:19;;;;;;;7.27;1.73;;;18.20;99.90;;;;;;5075337;28;20176;-67
2022/04/21 10:58:35;;;;;;;8.27;2.03;;;18.20;99.90;;;;;;5075165;28;20218;-68
2022/04/21 11:01:13;;;;;;;4.93;1.90;;;18.20;99.90;;;;;;5075136;28;20188;-67
2022/04/21 11:03:42;;;;;;;6.57;1.57;;;18.10;99.90;;;;;;5074559;28;20530;-67
2022/04/21 11:06:16;;;;;;;7.27;2.00;;;18.10;99.90;;;;;;5074970;28;20179;-67
2022/04/21 11:08:44;;;;;;;5.70;1.83;;;18.10;99.90;;;;;;5074693;28;20186;-68
2022/04/21 11:11:13;;;;;;;10.50;1.60;;;18.10;99.90;;;;;;5075050;28;20190;-68
2022/04/21 11:13:51;;;;;;;6.90;1.90;;;18.10;99.90;;;;;;5075115;28;20642;-68
2022/04/21 11:16:47;;;;;;;7.37;1.77;;;18.00;99.90;;;;;;5074432;28;20231;-67
2022/04/21 11:19:34;;;;;;;7.97;1.93;;;18.00;99.90;;;;;;5064805;28;20295;-66
2022/04/21 11:22:08;;;;;;;6.57;1.50;;;18.00;99.90;;;;;;5073672;28;20683;-66
2022/04/21 11:25:01;;;;;;;5.67;1.93;;;17.90;99.90;;;;;;5074977;28;20191;-67
2022/04/21 11:27:29;;;;;;;8.83;1.57;;;17.90;99.90;;;;;;5074497;28;20187;-67
2022/04/21 11:30:05;;;;;;;11.93;2.40;;;17.90;99.90;;;;;;5074359;28;20204;-67
2022/04/21 11:32:33;;;;;;;11.03;2.60;;;17.80;99.90;;;;;;5073537;28;20187;-67
2022/04/21 11:35:02;;;;;;;5.87;1.70;;;17.80;99.90;;;;;;5074602;28;20552;-67
2022/04/21 11:37:54;;;;;;;4.93;1.73;;;17.70;99.90;;;;;;5074323;28;20218;-67
2022/04/21 11:40:28;;;;;;;7.60;1.60;;;17.70;99.90;;;;;;5074510;28;20219;-67
2022/04/21 11:42:57;;;;;;;8.30;1.47;;;17.70;99.90;;;;;;5072318;28;20176;-66
2022/04/21 11:45:29;;;;;;;12.90;2.10;;;17.70;99.90;;;;;;5073961;28;20188;-67
2022/04/21 11:47:56;;;;;;;6.07;1.67;;;17.70;99.90;;;;;;5073747;28;20179;-65
2022/04/21 11:50:26;;;;;;;9.27;2.30;;;17.70;99.90;;;;;;5073908;28;20535;-66
2022/04/21 11:52:54;;;;;;;7.23;1.73;;;17.70;99.90;;;;;;5073016;28;20520;-67
2022/04/21 11:55:29;;;;;;;6.77;1.80;;;17.70;99.90;;;;;;5074028;28;20180;-67
2022/04/21 11:57:57;;;;;;;9.90;2.47;;;17.70;99.90;;;;;;5072924;28;20273;-67
2022/04/21 12:08:57;;;;;;;7.50;1.90;;;17.70;99.90;;;;;;5070272;28;20200;-67
2022/04/21 12:11:25;;;;;;;11.77;2.20;;;17.70;99.90;;;;;;5073836;28;20177;-67
2022/04/21 12:13:52;;;;;;;6.63;1.87;;;17.70;99.90;;;;;;5074001;28;20656;-67
2022/04/21 12:16:39;;;;;;;14.37;2.10;;;17.70;99.90;;;;;;5073302;28;20224;-68
2022/04/21 12:19:18;;;;;;;6.67;1.60;;;17.60;99.90;;;;;;5073691;28;20208;-67
2022/04/21 12:22:00;;;;;;;8.30;2.33;;;17.60;99.90;;;;;;5073398;28;20630;-66
2022/04/21 12:24:40;;;;;;;7.63;2.07;;;17.70;99.90;;;;;;5073643;28;20172;-66
2022/04/21 12:27:34;;;;;;;7.20;1.67;;;17.60;99.90;;;;;;5073349;28;20175;-67
2022/04/21 12:30:03;;;;;;;9.83;1.97;;;17.60;99.90;;;;;;5073393;28;20257;-67
2022/04/21 12:32:45;;;;;;;11.13;2.03;;;17.60;99.90;;;;;;5072782;28;20183;-67
2022/04/21 12:35:13;;;;;;;11.77;2.67;;;17.60;99.90;;;;;;5072046;28;20187;-67
2022/04/21 12:37:42;;;;;;;7.97;1.80;;;17.60;99.90;;;;;;5070007;28;20535;-67
2022/04/21 12:40:12;;;;;;;5.77;1.53;;;17.50;99.90;;;;;;5072742;28;20220;-67
2022/04/21 12:42:40;;;;;;;7.67;2.17;;;17.50;99.90;;;;;;5070282;28;20197;-66
2022/04/21 12:45:09;;;;;;;10.83;2.37;;;17.50;99.90;;;;;;5072499;28;20219;-68
2022/04/21 12:47:47;;;;;;;10.03;1.93;;;17.40;99.90;;;;;;5072758;28;20642;-67
2022/04/21 12:50:25;;;;;;;9.33;2.13;;;17.30;99.90;;;;;;5071659;28;20539;-67
2022/04/21 12:52:55;;;;;;;10.43;2.23;;;17.30;99.90;;;;;;5073362;28;20648;-67
2022/04/21 12:55:23;;;;;;;6.97;1.83;;;17.10;99.90;;;;;;5073304;28;20172;-67
2022/04/21 12:58:06;;;;;;;9.70;2.73;;;17.10;99.90;;;;;;5070341;28;20203;-67
2022/04/21 13:00:48;;;;;;;13.43;2.50;;;17.00;99.90;;;;;;5070651;28;20641;-66
2022/04/21 13:03:15;;;;;;;12.57;2.07;;;16.90;99.90;;;;;;5072341;28;20535;-66
2022/04/21 13:05:51;;;;;;;9.83;1.90;;;16.90;99.90;;;;;;5072312;28;20172;-66
2022/04/21 13:08:19;;;;;;;9.67;1.97;;;16.90;99.90;;;;;;5072444;28;20202;-67
2022/04/21 13:10:47;;;;;;;8.10;2.07;;;16.90;99.90;;;;;;5072816;28;20182;-67
2022/04/21 13:13:15;;;;;;;5.43;1.67;;;16.80;99.90;;;;;;5072851;28;20538;-67
2022/04/21 13:15:42;;;;;;;7.10;1.73;;;16.80;99.90;;;;;;5072670;28;20228;-66
2022/04/21 13:18:09;;;;;;;10.13;1.90;;;16.90;99.90;;;;;;5072940;28;20192;-66
2022/04/21 13:23:26;;;;;;;7.97;2.03;;;16.90;99.90;;;;;;5073178;28;20183;-67
2022/04/21 13:25:56;;;;;;;11.90;2.40;;;16.90;99.90;;;;;;5072257;28;20534;-67
2022/04/21 13:28:23;;;;;;;9.60;2.23;;;16.90;99.90;;;;;;5072544;28;20180;-66
2022/04/21 13:33:38;;;;;;;11.63;1.93;;;16.70;99.90;;;;;;5061649;28;20188;-67
2022/04/21 13:36:06;;;;;;;11.40;2.47;;;16.70;99.90;;;;;;5072463;28;20640;-67
2022/04/21 13:38:34;;;;;;;5.77;1.97;;;16.70;99.90;;;;;;5072757;28;20200;-66
2022/04/21 13:41:01;;;;;;;13.80;2.57;;;16.70;99.90;;;;;;5073104;28;20271;-66
2022/04/21 13:43:28;;;;;;;13.40;2.30;;;16.60;99.90;;;;;;5072900;28;20176;-66
2022/04/21 13:45:57;;;;;;;11.53;2.33;;;16.50;99.90;;;;;;5072235;28;20222;-67
2022/04/21 13:48:25;;;;;;;16.27;2.77;;;16.40;99.90;;;;;;5072803;28;20176;-66
2022/04/21 13:50:53;;;;;;;8.47;2.13;;;16.50;99.90;;;;;;5071992;28;20188;-67
2022/04/21 13:53:20;;;;;;;11.50;2.77;;;16.50;99.90;;;;;;5072613;28;20653;-67
2022/04/21 13:55:49;;;;;;;12.87;2.80;;;16.40;99.90;;;;;;5072244;28;20211;-67
2022/04/21 13:58:16;;;;;;;9.93;2.17;;;16.40;99.90;;;;;;5072579;28;20176;-67